Time;durP1;ratioP1;P1;durP2;ratioP2;P2;SDS_P1;SDS_P2;PMS_P1;PMS_P2;Temp;Humidity;BMP_temperature;BMP_pressure;BME280_temperature;BME280_humidity;BME280_pressure;Samples;Min_cycle;Max_cycle;Signal;HPM_P1;HPM_P2
2021/11/24 00:00:57;;;;;;;18.65;11.12;;;;;;;3.15;63.19;101136.61;1703651;82;21105;-64
2021/11/24 00:03:24;;;;;;;17.65;10.65;;;;;;;3.08;63.38;101138.59;1703238;82;21053;-65
2021/11/24 00:05:50;;;;;;;19.55;11.35;;;;;;;3.05;63.63;101140.46;1704758;82;21088;-65
2021/11/24 00:08:17;;;;;;;16.97;11.05;;;;;;;3.04;63.82;101145.25;1699954;82;21108;-65
2021/11/24 00:10:45;;;;;;;21.00;12.20;;;;;;;3.03;63.92;101149.61;1702346;82;21097;-64
2021/11/24 00:13:11;;;;;;;22.07;11.10;;;;;;;2.98;64.05;101146.33;1705736;82;21093;-65
2021/11/24 00:15:37;;;;;;;18.10;12.23;;;;;;;3.00;64.26;101146.28;1714180;82;21077;-64
2021/11/24 00:18:04;;;;;;;18.95;11.08;;;;;;;2.99;64.17;101142.81;1705626;82;21162;-64
2021/11/24 00:20:31;;;;;;;17.17;11.03;;;;;;;3.00;64.19;101147.12;1671249;84;21073;-65
2021/11/24 00:22:57;;;;;;;18.23;11.33;;;;;;;3.05;64.18;101145.20;1690987;82;21030;-65
2021/11/24 00:25:24;;;;;;;14.30;10.08;;;;;;;3.14;63.96;101144.88;1701342;82;21527;-65
2021/11/24 10:28:25;;;;;;;11.65;5.78;;;;;;;5.70;63.08;101336.94;1809434;77;22748;-65
2021/11/24 10:30:55;;;;;;;10.78;6.22;;;;;;;5.68;62.68;101334.42;1774203;78;21377;-65
2021/11/24 10:33:20;;;;;;;11.08;5.47;;;;;;;5.82;62.47;101336.41;1774251;78;21072;-64
2021/11/24 10:36:06;;;;;;;12.35;6.05;;;;;;;5.98;62.67;101340.97;1747617;80;20935;-65
2021/11/24 10:38:41;;;;;;;13.75;5.75;;;;;;;6.13;62.70;101342.88;1749652;80;21055;-65
2021/11/24 10:41:10;;;;;;;12.67;6.33;;;;;;;6.22;62.03;101346.39;1746744;78;21606;-64
2021/11/24 10:43:45;;;;;;;10.30;5.08;;;;;;;6.24;61.21;101336.70;1774353;78;21188;-64
2021/11/24 10:46:14;;;;;;;10.65;5.85;;;;;;;6.23;61.10;101341.53;1775967;78;21143;-65
2021/11/24 10:48:41;;;;;;;12.43;5.33;;;;;;;6.16;60.59;101337.52;1750593;80;21089;-64
2021/11/24 10:51:29;;;;;;;8.93;5.35;;;;;;;6.10;60.89;101341.27;1748748;80;21058;-65
2021/11/24 10:54:18;;;;;;;11.40;6.47;;;;;;;6.04;60.68;101335.48;1778343;78;20991;-64
2021/11/24 10:57:09;;;;;;;9.95;5.28;;;;;;;5.99;61.29;101342.67;1784859;78;21034;-64
2021/11/24 10:59:41;;;;;;;12.35;5.12;;;;;;;5.95;61.32;101336.69;1771825;78;21887;-65
2021/11/24 11:02:33;;;;;;;9.23;4.65;;;;;;;5.95;61.17;101336.25;1769528;78;21418;-65
2021/11/24 11:05:08;;;;;;;10.00;4.05;;;;;;;5.95;60.22;101336.69;1738689;80;21531;-65
2021/11/24 11:07:41;;;;;;;9.85;4.67;;;;;;;5.90;59.78;101342.58;1669169;81;64262;-67
2021/11/24 11:10:13;;;;;;;8.73;4.25;;;;;;;5.79;59.70;101343.07;1679404;82;21109;-69
2021/11/24 11:12:43;;;;;;;8.10;4.55;;;;;;;5.73;59.93;101334.20;1708915;82;21539;-69
2021/11/24 11:15:33;;;;;;;9.03;4.42;;;;;;;5.67;60.19;101334.48;1711046;81;21801;-70
2021/11/24 11:18:25;;;;;;;13.35;5.42;;;;;;;5.64;60.79;101331.54;1709773;82;21070;-67
2021/11/24 11:21:06;;;;;;;7.35;3.92;;;;;;;5.65;60.61;101336.30;1710729;82;21111;-69
2021/11/24 11:23:37;;;;;;;8.33;4.40;;;;;;;5.71;60.37;101328.20;1690013;82;21141;-69
2021/11/24 11:26:09;;;;;;;8.45;4.55;;;;;;;5.71;59.89;101334.26;1710415;82;21086;-68
2021/11/24 11:28:45;;;;;;;11.33;4.10;;;;;;;5.66;59.94;101325.78;1712280;82;21026;-68
2021/11/24 11:31:16;;;;;;;8.30;4.70;;;;;;;5.62;60.48;101318.17;1713239;82;21023;-70
2021/11/24 11:33:47;;;;;;;8.73;4.67;;;;;;;5.62;60.83;101320.32;1712286;82;21131;-68
2021/11/24 11:36:13;;;;;;;8.15;4.75;;;;;;;5.63;61.13;101314.20;1713404;82;21137;-67
2021/11/24 11:38:45;;;;;;;8.58;4.47;;;;;;;5.66;61.19;101311.89;1715224;82;21086;-71
2021/11/24 11:41:12;;;;;;;11.00;4.15;;;;;;;5.67;61.29;101311.83;1715153;82;21086;-65
2021/11/24 11:43:39;;;;;;;9.90;4.87;;;;;;;5.71;61.23;101315.98;1714432;82;21082;-62
2021/11/24 11:46:18;;;;;;;7.80;4.22;;;;;;;5.72;61.54;101316.84;1690610;83;21000;-66
2021/11/24 11:48:46;;;;;;;10.10;4.67;;;;;;;5.77;61.63;101314.41;1712530;82;21067;-66
2021/11/24 11:51:13;;;;;;;7.92;4.50;;;;;;;5.77;61.50;101310.49;1714720;82;21059;-69
2021/11/24 11:53:50;;;;;;;7.60;3.87;;;;;;;5.77;61.62;101306.58;1712366;82;21742;-65
2021/11/24 11:56:44;;;;;;;9.33;4.92;;;;;;;5.83;61.54;101312.44;1706403;82;21078;-67
2021/11/24 11:59:43;;;;;;;7.25;4.25;;;;;;;5.89;61.35;101314.31;1791433;77;22098;-75
2021/11/24 12:03:55;;;;;;;8.85;4.67;;;;;;;6.00;60.83;101296.02;1812489;76;22527;-76
2021/11/24 12:06:32;;;;;;;10.10;4.85;;;;;;;6.03;60.90;101303.25;1816539;77;21120;-74
2021/11/24 12:09:09;;;;;;;7.58;4.47;;;;;;;6.10;60.84;101302.07;1816095;77;21297;-76
2021/11/24 12:12:07;;;;;;;11.40;4.53;;;;;;;6.11;61.12;101297.22;1813597;77;21061;-75
2021/11/24 12:15:04;;;;;;;8.53;4.80;;;;;;;6.13;60.80;101299.76;1806492;77;21815;-76
2021/11/24 12:17:35;;;;;;;6.65;3.92;;;;;;;6.13;60.78;101301.06;1782754;77;21057;-76
2021/11/24 12:20:18;;;;;;;9.58;4.47;;;;;;;6.10;60.55;101299.45;1810165;77;21336;-75
2021/11/24 12:22:52;;;;;;;8.23;4.50;;;;;;;6.07;60.48;101300.03;1813201;77;21158;-76
2021/11/24 12:25:27;;;;;;;10.30;4.95;;;;;;;6.04;60.34;101304.95;1813226;77;21019;-71
2021/11/24 12:28:06;;;;;;;11.55;5.37;;;;;;;6.00;60.49;101308.65;1819360;77;20998;-75
2021/11/24 12:30:47;;;;;;;8.23;4.60;;;;;;;5.99;60.77;101305.63;1781987;77;21281;-75
2021/11/24 12:33:36;;;;;;;8.20;4.20;;;;;;;5.99;60.80;101308.24;1802274;77;64783;-69
2021/11/24 12:36:16;;;;;;;7.53;4.28;;;;;;;6.00;60.71;101304.73;1765001;79;21143;-68
2021/11/24 12:38:58;;;;;;;9.80;4.58;;;;;;;5.99;60.51;101301.71;1745206;80;21070;-67
2021/11/24 12:44:16;;;;;;;12.28;6.60;;;;;;;6.07;62.42;101297.42;1872863;74;21967;-67
2021/11/24 12:46:44;;;;;;;9.00;4.60;;;;;;;6.17;65.65;101308.30;1842721;75;21010;-66
2021/11/24 12:49:15;;;;;;;7.80;4.50;;;;;;;6.09;64.59;101305.59;1846786;75;21072;-67
2021/11/24 12:51:46;;;;;;;8.65;4.62;;;;;;;6.04;68.58;101301.51;1849325;75;21005;-70
2021/11/24 12:54:24;;;;;;;7.92;4.33;;;;;;;5.94;66.93;101299.27;1846854;75;21053;-63
2021/11/24 12:56:58;;;;;;;8.25;4.85;;;;;;;5.85;65.86;101304.94;1841009;76;21074;-68
2021/11/24 12:59:31;;;;;;;14.63;5.03;;;;;;;5.80;65.13;101303.42;1839065;75;23122;-70
2021/11/24 13:02:09;;;;;;;11.28;5.83;;;;;;;5.77;64.24;101302.66;1842349;75;21111;-65
2021/11/24 13:04:47;;;;;;;10.58;4.70;;;;;;;5.74;63.49;101300.17;1839985;76;21042;-69
2021/11/24 13:07:19;;;;;;;9.08;4.58;;;;;;;5.75;62.77;101299.74;1842033;75;20911;-62
2021/11/24 13:09:46;;;;;;;10.08;5.40;;;;;;;5.72;62.52;101300.71;1842493;75;22334;-69
2021/11/24 13:12:17;;;;;;;12.13;5.75;;;;;;;5.66;62.10;101295.75;1834279;75;21090;-69
2021/11/24 13:14:56;;;;;;;12.25;6.85;;;;;;;5.64;62.25;101299.37;1838022;75;21218;-74
2021/11/24 13:17:29;;;;;;;9.38;5.33;;;;;;;5.63;62.27;101303.75;1837131;75;21556;-65
2021/11/24 13:20:08;;;;;;;9.55;4.80;;;;;;;5.62;62.48;101303.34;1841353;76;21033;-63
2021/11/24 13:22:45;;;;;;;8.73;4.87;;;;;;;5.66;62.19;101302.28;1843159;75;21406;-67
2021/11/24 13:25:29;;;;;;;7.97;4.97;;;;;;;5.67;62.14;101296.16;1823930;77;21485;-63
2021/11/24 13:28:06;;;;;;;11.40;5.40;;;;;;;5.69;62.10;101303.92;1841589;75;21082;-65
2021/11/24 13:30:47;;;;;;;11.68;5.08;;;;;;;5.68;61.95;101307.00;1848288;75;21596;-65
2021/11/24 13:33:24;;;;;;;10.68;5.12;;;;;;;5.72;61.72;101312.47;1844400;75;21080;-68
2021/11/24 13:36:09;;;;;;;11.83;5.60;;;;;;;5.84;60.29;101315.45;1846590;76;21623;-63
2021/11/24 13:38:45;;;;;;;9.93;4.37;;;;;;;5.86;60.01;101313.61;1842157;75;21057;-64
2021/11/24 13:41:27;;;;;;;8.93;5.17;;;;;;;5.82;60.58;101306.38;1847158;75;21108;-64
2021/11/24 13:44:03;;;;;;;9.35;5.80;;;;;;;5.82;60.92;101309.45;1833585;77;21053;-67
2021/11/24 13:46:35;;;;;;;11.53;5.53;;;;;;;5.82;60.74;101312.06;1830543;77;21065;-66
2021/11/24 13:49:17;;;;;;;9.23;5.08;;;;;;;5.81;60.47;101309.89;1833500;77;21057;-65
2021/11/24 13:51:49;;;;;;;11.25;5.53;;;;;;;5.81;60.35;101303.83;1829347;76;21605;-65
2021/11/24 13:54:19;;;;;;;8.08;4.87;;;;;;;5.80;60.35;101307.34;1831509;77;21123;-68
2021/11/24 13:56:51;;;;;;;9.45;5.33;;;;;;;5.79;59.89;101293.91;1833406;77;21539;-65
2021/11/24 13:59:24;;;;;;;11.75;5.45;;;;;;;5.73;59.42;101292.41;1832732;77;21014;-69
2021/11/24 14:01:54;;;;;;;8.30;4.78;;;;;;;5.69;59.12;101293.48;1833235;77;21057;-69
2021/11/24 14:04:36;;;;;;;8.48;4.08;;;;;;;5.66;58.80;101297.06;1803431;77;21101;-66
2021/11/24 14:07:18;;;;;;;7.60;5.05;;;;;;;5.63;58.78;101290.70;1825024;76;21093;-65
2021/11/24 14:09:58;;;;;;;9.95;4.03;;;;;;;5.59;58.80;101296.48;1821062;77;21153;-65
2021/11/24 14:12:30;;;;;;;12.53;5.83;;;;;;;5.57;58.39;101288.34;1828471;76;21509;-73
2021/11/24 14:15:12;;;;;;;9.03;4.28;;;;;;;5.56;58.44;101292.73;1823419;76;21108;-62
2021/11/24 14:17:44;;;;;;;9.28;4.47;;;;;;;5.54;58.14;101291.93;1827376;76;21077;-65
2021/11/24 14:20:33;;;;;;;11.28;4.83;;;;;;;5.54;58.03;101296.31;1828118;77;21058;-65
2021/11/24 14:23:22;;;;;;;10.43;4.55;;;;;;;5.49;58.01;101297.81;1831679;77;21011;-66
2021/11/24 14:25:52;;;;;;;8.35;4.72;;;;;;;5.46;58.17;101304.94;1828847;77;20979;-66
2021/11/24 14:28:27;;;;;;;7.50;4.53;;;;;;;5.42;58.45;101305.53;1830305;77;21059;-65
2021/11/24 14:30:56;;;;;;;9.65;6.12;;;;;;;5.41;58.83;101303.83;1831132;77;21556;-67
2021/11/24 14:33:29;;;;;;;9.00;4.92;;;;;;;5.43;58.73;101300.72;1829550;77;21112;-63
2021/11/24 14:35:56;;;;;;;14.63;6.80;;;;;;;5.44;58.89;101297.64;1827569;77;21069;-65
2021/11/24 14:38:24;;;;;;;14.15;7.05;;;;;;;5.45;58.96;101300.65;1788639;78;21096;-64
2021/11/24 14:40:50;;;;;;;15.25;9.43;;;;;;;5.45;59.12;101291.05;1774909;79;21169;-64
2021/11/24 14:43:17;;;;;;;20.88;13.18;;;;;;;5.45;59.34;101292.82;1777322;79;21010;-64
2021/11/24 14:45:44;;;;;;;24.87;17.25;;;;;;;5.44;59.53;101296.33;1780484;78;21145;-64
2021/11/24 14:48:11;;;;;;;18.77;12.15;;;;;;;5.47;59.64;101297.04;1783921;78;21037;-64
2021/11/24 14:50:40;;;;;;;15.00;9.83;;;;;;;5.60;59.82;101290.83;1780268;78;21541;-66
2021/11/24 14:53:07;;;;;;;11.15;6.37;;;;;;;5.71;59.88;101302.08;1779215;78;21097;-68
2021/11/24 14:55:33;;;;;;;16.42;6.42;;;;;;;5.77;59.91;101299.20;1796780;78;21391;-67
2021/11/24 14:58:00;;;;;;;10.98;5.50;;;;;;;5.79;59.81;101299.98;1802741;77;21888;-68
2021/11/24 15:00:31;;;;;;;9.15;5.72;;;;;;;5.78;59.82;101302.19;1801632;77;21039;-65
2021/11/24 15:02:59;;;;;;;10.00;5.42;;;;;;;5.76;59.65;101303.56;1802206;77;21568;-64
2021/11/24 15:05:27;;;;;;;9.68;5.85;;;;;;;5.73;59.38;101306.34;1771269;78;21054;-65
2021/11/24 15:07:54;;;;;;;8.88;5.58;;;;;;;5.71;59.46;101300.31;1776465;78;21101;-66
2021/11/24 15:10:22;;;;;;;9.23;5.15;;;;;;;5.68;59.22;101300.91;1756617;79;21706;-65
2021/11/24 15:12:49;;;;;;;10.88;5.30;;;;;;;5.61;59.08;101301.64;1778182;79;21095;-64
2021/11/24 15:15:17;;;;;;;11.45;5.90;;;;;;;5.57;59.19;101305.32;1800071;77;21042;-63
2021/11/24 15:17:44;;;;;;;9.25;5.58;;;;;;;5.54;58.91;101299.77;1752178;80;21057;-68
2021/11/24 15:20:12;;;;;;;13.25;5.72;;;;;;;5.51;58.77;101298.59;1756355;79;21082;-67
2021/11/24 15:22:38;;;;;;;11.25;5.70;;;;;;;5.49;58.75;101304.34;1771470;78;21965;-66
2021/11/24 15:25:08;;;;;;;14.18;5.25;;;;;;;5.48;58.40;101307.02;1795691;78;21573;-66
2021/11/24 15:27:37;;;;;;;11.55;6.35;;;;;;;5.46;58.25;101307.55;1807993;78;21687;-66
2021/11/24 15:30:04;;;;;;;12.55;6.67;;;;;;;5.44;57.98;101318.05;1797057;78;21558;-65
2021/11/24 15:32:32;;;;;;;12.30;5.92;;;;;;;5.42;57.93;101312.52;1797819;77;21097;-67
2021/11/24 15:34:59;;;;;;;10.78;5.65;;;;;;;5.40;57.80;101312.13;1809662;77;21510;-68
2021/11/24 15:37:26;;;;;;;10.32;5.85;;;;;;;5.39;57.80;101314.33;1782228;78;21054;-67
2021/11/24 15:39:53;;;;;;;12.53;6.25;;;;;;;5.38;57.46;101313.12;1785287;78;21129;-61
2021/11/24 15:42:20;;;;;;;11.83;6.12;;;;;;;5.37;57.34;101318.77;1783035;78;21049;-70
2021/11/24 15:44:47;;;;;;;9.30;4.67;;;;;;;5.37;57.41;101314.86;1796690;77;20994;-73
2021/11/24 15:47:13;;;;;;;9.95;4.80;;;;;;;5.36;57.36;101317.09;1768754;78;21470;-65
2021/11/24 15:49:43;;;;;;;11.10;5.22;;;;;;;5.36;57.03;101310.58;1776425;78;21077;-66
2021/11/24 15:52:14;;;;;;;8.75;4.55;;;;;;;5.37;56.98;101312.25;1773020;79;21186;-64
2021/11/24 15:54:38;;;;;;;8.10;4.55;;;;;;;5.38;56.97;101315.27;1774435;78;21709;-67
2021/11/24 15:57:05;;;;;;;12.45;5.28;;;;;;;5.37;56.91;101305.72;1795587;78;20987;-64
2021/11/24 15:59:32;;;;;;;9.25;4.08;;;;;;;5.39;56.96;101306.97;1763752;79;21521;-65
2021/11/24 16:02:00;;;;;;;10.13;4.53;;;;;;;5.40;56.91;101302.98;1780183;78;21063;-64
2021/11/24 16:04:26;;;;;;;12.90;4.75;;;;;;;5.44;56.92;101303.70;1746709;80;21116;-66
2021/11/24 16:06:53;;;;;;;9.88;4.85;;;;;;;5.45;56.58;101309.79;1770005;78;21101;-64
2021/11/24 16:09:20;;;;;;;11.22;5.12;;;;;;;5.44;56.53;101306.77;1767973;78;21054;-65
2021/11/24 16:11:46;;;;;;;10.93;5.35;;;;;;;5.44;56.35;101302.86;1773520;78;21745;-65
2021/11/24 16:14:13;;;;;;;10.28;5.15;;;;;;;5.44;56.45;101302.86;1802819;78;21531;-67
2021/11/24 16:16:41;;;;;;;12.15;5.17;;;;;;;5.40;56.44;101304.30;1805512;78;21550;-65
2021/11/24 16:19:15;;;;;;;9.20;5.40;;;;;;;5.38;56.46;101306.59;1791346;78;21086;-67
2021/11/24 16:21:44;;;;;;;7.87;4.70;;;;;;;5.37;56.50;101310.11;1807234;77;21596;-64
2021/11/24 16:24:13;;;;;;;9.30;5.05;;;;;;;5.33;56.49;101305.48;1774352;78;21108;-70
2021/11/24 16:26:40;;;;;;;11.85;5.08;;;;;;;5.32;56.90;101306.38;1794811;77;21071;-67
2021/11/24 16:29:06;;;;;;;12.95;4.67;;;;;;;5.29;56.75;101301.29;1774801;78;21116;-67
2021/11/24 16:31:33;;;;;;;9.20;5.22;;;;;;;5.29;56.81;101307.81;1797555;78;21087;-68
2021/11/24 16:34:00;;;;;;;10.08;5.35;;;;;;;5.30;56.88;101309.52;1791899;78;21058;-67
2021/11/24 16:36:29;;;;;;;7.85;4.35;;;;;;;5.29;56.89;101305.20;1767126;77;21113;-69
2021/11/24 16:38:57;;;;;;;11.00;5.87;;;;;;;5.29;57.00;101314.81;1777910;78;21019;-72
2021/11/24 16:41:24;;;;;;;10.98;5.72;;;;;;;5.28;57.16;101320.92;1763320;78;21046;-69
2021/11/24 16:43:52;;;;;;;11.00;5.55;;;;;;;5.27;57.22;101323.16;1799538;77;21030;-67
2021/11/24 16:46:19;;;;;;;11.05;5.40;;;;;;;5.25;57.43;101321.08;1782864;78;21077;-69
2021/11/24 16:48:48;;;;;;;8.70;4.97;;;;;;;5.24;57.62;101320.68;1792164;77;21061;-69
2021/11/24 16:51:14;;;;;;;11.70;5.08;;;;;;;5.26;57.58;101318.41;1796926;77;21117;-68
2021/11/24 16:53:44;;;;;;;9.05;5.55;;;;;;;5.28;57.31;101322.23;1805574;77;21086;-67
2021/11/24 16:56:11;;;;;;;10.30;5.05;;;;;;;5.27;57.40;101321.86;1774261;78;21544;-70
2021/11/24 16:58:37;;;;;;;9.68;5.08;;;;;;;5.24;57.29;101321.52;1799821;78;21033;-67
2021/11/24 17:01:04;;;;;;;10.53;5.97;;;;;;;5.24;57.46;101320.22;1802106;78;21127;-71
2021/11/24 17:03:33;;;;;;;9.18;5.50;;;;;;;5.24;57.40;101320.22;1805687;78;21118;-71
2021/11/24 17:06:01;;;;;;;12.07;5.92;;;;;;;5.23;57.27;101317.23;1775181;78;21589;-70
2021/11/24 17:08:29;;;;;;;9.98;5.80;;;;;;;5.20;57.45;101324.72;1802362;77;21065;-69
2021/11/24 17:10:56;;;;;;;9.53;5.62;;;;;;;5.19;57.34;101320.44;1800882;77;21045;-66
2021/11/24 17:13:25;;;;;;;11.55;5.83;;;;;;;5.20;57.47;101329.10;1743635;80;21086;-67
2021/11/24 17:15:55;;;;;;;10.98;5.75;;;;;;;5.23;57.48;101330.28;1781413;78;21069;-68
2021/11/24 17:18:22;;;;;;;11.38;6.25;;;;;;;5.23;57.51;101329.41;1796482;77;21015;-67
2021/11/24 17:20:49;;;;;;;11.75;6.30;;;;;;;5.25;57.40;101320.62;1777708;78;21115;-70
2021/11/24 17:23:16;;;;;;;13.03;6.50;;;;;;;5.25;57.15;101325.00;1799730;78;21599;-68
2021/11/24 17:25:45;;;;;;;9.95;4.95;;;;;;;5.22;56.98;101325.96;1801780;77;21967;-71
2021/11/24 17:28:13;;;;;;;11.48;5.35;;;;;;;5.19;57.17;101326.09;1780289;79;21021;-69
2021/11/24 17:30:40;;;;;;;10.43;5.92;;;;;;;5.18;56.94;101325.25;1777795;78;21149;-69
2021/11/24 17:33:07;;;;;;;10.43;5.25;;;;;;;5.20;56.89;101327.33;1779324;78;21077;-67
2021/11/24 17:35:34;;;;;;;12.58;5.15;;;;;;;5.19;57.02;101330.00;1791531;77;21555;-68
2021/11/24 17:38:01;;;;;;;8.00;4.67;;;;;;;5.20;57.11;101330.41;1809604;77;22008;-68
2021/11/24 17:40:28;;;;;;;10.93;6.03;;;;;;;5.20;57.03;101331.24;1755766;78;21596;-69
2021/11/24 17:42:55;;;;;;;10.23;5.53;;;;;;;5.24;56.89;101328.52;1797746;78;21062;-68
2021/11/24 17:45:23;;;;;;;10.72;5.40;;;;;;;5.25;56.19;101320.62;1815696;77;21550;-68
2021/11/24 17:47:51;;;;;;;10.55;5.78;;;;;;;5.22;55.84;101322.05;1768386;79;21042;-70
2021/11/24 17:50:18;;;;;;;10.03;5.05;;;;;;;5.19;55.84;101313.91;1815783;78;21572;-71
2021/11/24 17:52:45;;;;;;;9.13;4.65;;;;;;;5.18;55.10;101321.80;1818384;77;21147;-69
2021/11/24 17:55:12;;;;;;;11.15;5.53;;;;;;;5.14;55.52;101311.92;1815102;77;21034;-70
2021/11/24 17:57:39;;;;;;;9.18;4.78;;;;;;;5.13;55.69;101312.86;1812941;78;21568;-67
2021/11/24 18:00:10;;;;;;;9.53;5.20;;;;;;;5.15;55.71;101318.02;1820298;77;21042;-68
2021/11/24 18:02:37;;;;;;;7.95;4.22;;;;;;;5.16;55.76;101312.73;1808847;77;21527;-69
2021/11/24 18:05:05;;;;;;;11.28;5.40;;;;;;;5.17;55.58;101310.96;1787299;78;21061;-67
2021/11/24 18:07:32;;;;;;;9.90;5.08;;;;;;;5.18;55.40;101316.12;1790175;78;21155;-67
2021/11/24 18:09:59;;;;;;;16.42;4.90;;;;;;;5.19;55.47;101312.61;1813079;77;21092;-68
2021/11/24 18:12:26;;;;;;;9.23;5.30;;;;;;;5.20;55.45;101315.59;1808085;78;21109;-70
2021/11/24 18:14:53;;;;;;;10.15;5.17;;;;;;;5.24;55.45;101316.30;1791532;78;21453;-69
2021/11/24 18:17:19;;;;;;;11.22;4.78;;;;;;;5.25;55.51;101314.09;1793898;78;21131;-70
2021/11/24 18:19:46;;;;;;;8.88;5.03;;;;;;;5.27;55.02;101315.34;1789176;78;21702;-68
2021/11/24 18:22:13;;;;;;;9.23;4.33;;;;;;;5.26;55.10;101316.23;1788310;78;21552;-68
2021/11/24 18:24:40;;;;;;;9.68;4.50;;;;;;;5.25;55.09;101309.34;1816898;78;21650;-71
2021/11/24 18:27:09;;;;;;;12.43;4.53;;;;;;;5.26;55.23;101308.41;1811376;77;21328;-70
2021/11/24 18:29:37;;;;;;;8.68;4.35;;;;;;;5.27;55.08;101312.73;1789666;77;21586;-70
2021/11/24 18:32:04;;;;;;;8.70;4.33;;;;;;;5.25;54.97;101307.57;1806604;78;21121;-68
2021/11/24 18:34:31;;;;;;;9.60;5.03;;;;;;;5.24;54.90;101310.24;1810619;78;21026;-69
2021/11/24 18:36:58;;;;;;;8.95;5.10;;;;;;;5.20;54.71;101308.23;1816642;78;20979;-69
2021/11/24 18:39:24;;;;;;;10.75;5.37;;;;;;;5.17;55.12;101305.28;1794164;78;21010;-68
2021/11/24 18:41:51;;;;;;;9.05;5.47;;;;;;;5.18;55.16;101312.67;1792827;78;21046;-60
2021/11/24 18:44:18;;;;;;;10.82;5.42;;;;;;;5.16;55.03;101301.42;1757325;79;21109;-65
2021/11/24 18:46:45;;;;;;;13.15;5.17;;;;;;;5.15;54.92;101306.27;1789639;78;21086;-71
2021/11/24 18:49:11;;;;;;;10.58;4.92;;;;;;;5.10;54.99;101299.10;1776140;78;21058;-63
2021/11/24 18:51:38;;;;;;;9.40;4.90;;;;;;;5.07;55.15;101294.84;1770118;79;22133;-66
2021/11/24 18:54:05;;;;;;;11.60;5.40;;;;;;;5.08;55.34;101298.29;1790443;78;21536;-65
2021/11/24 18:56:32;;;;;;;11.28;4.92;;;;;;;5.08;55.42;101303.08;1791922;77;21385;-66
2021/11/24 18:59:01;;;;;;;10.90;5.53;;;;;;;5.08;55.26;101302.20;1781683;78;21101;-69
2021/11/24 19:01:28;;;;;;;11.60;5.55;;;;;;;5.06;55.35;101303.60;1789606;77;21054;-70
2021/11/24 19:03:56;;;;;;;10.38;5.30;;;;;;;5.06;55.24;101304.03;1767291;79;21812;-66
2021/11/24 19:06:22;;;;;;;8.55;4.33;;;;;;;5.03;55.34;101304.56;1791152;78;21128;-69
2021/11/24 19:08:49;;;;;;;8.73;5.08;;;;;;;5.01;55.15;101302.95;1789826;77;21011;-70
2021/11/24 19:11:16;;;;;;;8.43;4.45;;;;;;;4.98;55.26;101313.04;1786457;77;21057;-66
2021/11/24 19:13:46;;;;;;;11.30;5.25;;;;;;;4.97;55.09;101312.64;1771327;78;21205;-66
2021/11/24 19:16:15;;;;;;;8.95;4.92;;;;;;;4.95;55.02;101310.55;1777033;78;21970;-67
2021/11/24 19:18:41;;;;;;;11.20;5.65;;;;;;;4.90;55.16;101309.90;1751896;80;22055;-67
2021/11/24 19:21:08;;;;;;;9.23;5.47;;;;;;;4.84;55.42;101301.02;1773930;78;21611;-69
2021/11/24 19:23:35;;;;;;;10.03;5.30;;;;;;;4.84;55.65;101306.23;1772421;78;22209;-66
2021/11/24 19:26:04;;;;;;;9.75;4.85;;;;;;;4.86;55.46;101307.05;1771192;78;21566;-70
2021/11/24 19:28:32;;;;;;;8.20;4.80;;;;;;;4.86;55.37;101307.47;1732472;80;21363;-69
2021/11/24 19:31:00;;;;;;;8.63;4.55;;;;;;;4.83;55.41;101310.61;1769530;78;21065;-71
2021/11/24 19:33:29;;;;;;;11.00;5.05;;;;;;;4.81;55.66;101307.22;1773012;78;21134;-73
2021/11/24 19:35:56;;;;;;;7.70;4.55;;;;;;;4.81;55.41;101303.78;1770923;78;21371;-72
2021/11/24 19:38:26;;;;;;;10.43;4.55;;;;;;;4.78;55.46;101300.83;1777626;80;21039;-70
2021/11/24 19:40:54;;;;;;;10.40;5.37;;;;;;;4.76;55.66;101301.34;1773083;78;21109;-71
2021/11/24 19:43:21;;;;;;;9.23;4.78;;;;;;;4.77;55.52;101299.58;1752196;80;21074;-71
2021/11/24 19:45:49;;;;;;;9.68;4.60;;;;;;;4.76;55.67;101296.60;1781141;78;21049;-67
2021/11/24 19:48:18;;;;;;;8.73;5.20;;;;;;;4.76;55.57;101296.60;1790141;78;21391;-69
2021/11/24 19:50:45;;;;;;;9.53;4.40;;;;;;;4.77;55.60;101300.89;1789675;78;21109;-70
2021/11/24 19:53:17;;;;;;;9.03;4.95;;;;;;;4.75;55.56;101308.77;1787862;78;21119;-69
2021/11/24 19:55:42;;;;;;;7.67;4.55;;;;;;;4.76;55.54;101302.66;1786944;79;21006;-71
2021/11/24 19:58:10;;;;;;;9.15;4.83;;;;;;;4.75;55.55;101300.95;1790846;78;21116;-68
2021/11/24 20:00:38;;;;;;;8.38;4.37;;;;;;;4.74;55.55;101301.87;1793188;78;21094;-67
2021/11/24 20:03:05;;;;;;;10.58;4.53;;;;;;;4.73;55.62;101295.42;1783601;78;21053;-71
2021/11/24 20:05:35;;;;;;;6.20;3.67;;;;;;;4.75;55.63;101307.47;1810574;77;21018;-67
2021/11/24 20:08:02;;;;;;;7.20;4.17;;;;;;;4.75;55.65;101304.02;1803153;77;21062;-68
2021/11/24 20:10:29;;;;;;;7.55;4.25;;;;;;;4.75;55.48;101301.41;1806626;77;21571;-70
2021/11/24 20:12:59;;;;;;;8.65;4.50;;;;;;;4.76;55.50;101307.03;1808393;77;21504;-67
2021/11/24 20:15:25;;;;;;;8.50;5.03;;;;;;;4.74;55.58;101306.22;1808123;77;21105;-66
2021/11/24 20:17:52;;;;;;;9.70;5.00;;;;;;;4.72;55.70;101300.23;1785049;78;21049;-67
2021/11/24 20:20:20;;;;;;;11.05;4.92;;;;;;;4.73;55.63;101308.45;1796523;77;21128;-68
2021/11/24 20:22:47;;;;;;;9.15;4.90;;;;;;;4.72;55.65;101310.19;1775371;79;21537;-68
2021/11/24 20:25:15;;;;;;;8.43;4.40;;;;;;;4.73;55.66;101304.55;1781902;78;21144;-70
2021/11/24 20:27:42;;;;;;;9.28;4.87;;;;;;;4.72;55.64;101304.14;1782438;79;21085;-71
2021/11/24 20:30:09;;;;;;;9.58;4.47;;;;;;;4.69;55.65;101299.91;1782804;78;21840;-69
2021/11/24 20:32:38;;;;;;;8.08;4.37;;;;;;;4.68;55.88;101302.12;1795212;78;21765;-69
2021/11/24 20:35:05;;;;;;;8.58;4.58;;;;;;;4.69;55.76;101301.66;1810018;78;21035;-69
2021/11/24 20:37:33;;;;;;;8.35;4.30;;;;;;;4.68;55.66;101302.58;1818448;77;21058;-69
2021/11/24 20:40:00;;;;;;;7.70;3.90;;;;;;;4.66;55.47;101294.82;1808802;77;21058;-72
2021/11/24 20:42:27;;;;;;;12.63;4.75;;;;;;;4.66;55.47;101297.42;1761507;78;21165;-68
2021/11/24 20:44:54;;;;;;;9.50;3.95;;;;;;;4.65;55.49;101293.11;1810150;78;20983;-74
2021/11/24 20:47:20;;;;;;;10.95;4.37;;;;;;;4.67;55.22;101294.36;1817989;77;21058;-70
2021/11/24 20:49:47;;;;;;;11.22;4.53;;;;;;;4.63;55.41;101289.72;1810593;77;21061;-68
2021/11/24 20:52:14;;;;;;;8.00;4.40;;;;;;;4.62;55.13;101298.44;1789720;78;21104;-71
2021/11/24 20:54:44;;;;;;;8.35;4.65;;;;;;;4.58;55.29;101300.33;1820687;78;21479;-69
2021/11/24 20:57:09;;;;;;;8.45;3.85;;;;;;;4.58;55.29;101294.28;1800423;78;21022;-70
2021/11/24 20:59:40;;;;;;;6.25;3.52;;;;;;;4.58;55.36;101294.28;1811427;77;20998;-67
2021/11/24 21:02:07;;;;;;;8.80;4.40;;;;;;;4.57;55.20;101297.35;1807310;77;21054;-69
2021/11/24 21:04:34;;;;;;;7.67;4.35;;;;;;;4.55;55.08;101299.14;1786393;77;21089;-70
2021/11/24 21:07:01;;;;;;;9.55;4.33;;;;;;;4.54;55.21;101303.11;1807885;78;21496;-69
2021/11/24 21:09:31;;;;;;;6.75;3.90;;;;;;;4.55;55.14;101300.45;1816699;77;21065;-67
2021/11/24 21:11:57;;;;;;;7.20;3.87;;;;;;;4.55;55.20;101299.14;1803551;77;21508;-69
2021/11/24 21:14:24;;;;;;;7.75;3.85;;;;;;;4.58;55.32;101300.80;1811069;77;21080;-68
2021/11/24 21:16:51;;;;;;;6.70;3.22;;;;;;;4.58;55.29;101305.55;1806691;77;21133;-72
2021/11/24 21:19:18;;;;;;;7.40;3.55;;;;;;;4.60;55.28;101305.48;1805977;78;21061;-68
2021/11/24 21:21:44;;;;;;;8.88;4.42;;;;;;;4.60;55.06;101302.41;1779609;78;21096;-69
2021/11/24 21:24:12;;;;;;;8.55;3.77;;;;;;;4.59;55.09;101305.95;1818287;77;21587;-70
2021/11/24 21:26:39;;;;;;;7.03;3.62;;;;;;;4.58;54.76;101304.23;1812722;78;21117;-68
2021/11/24 21:29:05;;;;;;;7.67;4.25;;;;;;;4.53;54.79;101306.65;1813455;77;21021;-67
2021/11/24 21:31:32;;;;;;;9.60;4.30;;;;;;;4.51;54.92;101305.41;1786426;78;21704;-68
2021/11/24 21:33:59;;;;;;;8.13;4.05;;;;;;;4.51;54.88;101308.01;1812713;77;21085;-70
2021/11/24 21:36:26;;;;;;;7.10;3.83;;;;;;;4.51;55.01;101305.41;1811397;78;21078;-69
2021/11/24 21:38:55;;;;;;;11.97;4.92;;;;;;;4.52;54.95;101305.78;1801632;78;21110;-71
2021/11/24 21:41:23;;;;;;;8.28;4.00;;;;;;;4.51;55.06;101309.31;1797217;78;21070;-68
2021/11/24 21:43:49;;;;;;;8.08;3.80;;;;;;;4.51;55.20;101306.70;1773765;79;21042;-68
2021/11/24 21:46:16;;;;;;;7.05;3.80;;;;;;;4.52;55.18;101302.33;1756658;80;21074;-67
2021/11/24 21:48:42;;;;;;;7.95;4.40;;;;;;;4.54;55.20;101294.86;1769039;79;21125;-67